Time;durP1;ratioP1;P1;durP2;ratioP2;P2;SDS_P1;SDS_P2;PMS_P1;PMS_P2;Temp;Humidity;BMP_temperature;BMP_pressure;BME280_temperature;BME280_humidity;BME280_pressure;Samples;Min_cycle;Max_cycle;Signal;HPM_P1;HPM_P2
2021/06/23 00:01:59;;;;;;;6.07;3.38;;;14.40;73.10;;;;;;4994180;28;20028;-88
2021/06/23 00:04:24;;;;;;;2.67;2.40;;;14.40;73.10;;;;;;4994952;28;20029;-89
2021/06/23 00:06:50;;;;;;;3.50;2.85;;;14.50;72.90;;;;;;4995548;28;20033;-89
2021/06/23 00:09:19;;;;;;;4.30;2.92;;;14.50;73.00;;;;;;5012783;28;20389;-88
2021/06/23 00:11:47;;;;;;;5.13;2.85;;;14.50;73.00;;;;;;5012320;28;20037;-89
2021/06/23 00:14:13;;;;;;;3.53;2.75;;;14.50;73.10;;;;;;5012670;28;20022;-89
2021/06/23 00:16:40;;;;;;;4.43;2.90;;;14.50;73.20;;;;;;4997382;28;20416;-90
2021/06/23 00:19:06;;;;;;;4.45;2.97;;;14.40;73.20;;;;;;5018539;28;20021;-88
2021/06/23 00:21:32;;;;;;;4.15;3.17;;;14.40;73.30;;;;;;5011633;28;20028;-89
2021/06/23 00:23:58;;;;;;;5.97;3.03;;;14.40;73.30;;;;;;5001103;28;20036;-89
2021/06/23 00:26:23;;;;;;;4.38;2.88;;;14.30;73.50;;;;;;4995033;28;20029;-89
2021/06/23 00:28:49;;;;;;;4.03;2.95;;;14.30;73.50;;;;;;4994912;28;20395;-88
2021/06/23 00:31:14;;;;;;;4.35;2.63;;;14.30;73.70;;;;;;5011492;28;20026;-88
2021/06/23 00:33:41;;;;;;;4.60;2.97;;;14.30;73.70;;;;;;5010984;28;20095;-90
2021/06/23 00:36:07;;;;;;;5.40;2.80;;;14.30;73.70;;;;;;5013273;28;20044;-90
2021/06/23 00:38:32;;;;;;;5.25;2.47;;;14.30;73.70;;;;;;4989487;28;20568;-90
2021/06/23 00:40:59;;;;;;;4.10;3.03;;;14.30;73.70;;;;;;4981523;28;20515;-89
2021/06/23 00:43:25;;;;;;;3.88;2.70;;;14.30;73.80;;;;;;5006293;28;20019;-90
2021/06/23 00:45:51;;;;;;;4.55;3.28;;;14.20;73.80;;;;;;5008410;28;20066;-90
2021/06/23 00:48:27;;;;;;;5.60;3.38;;;14.20;74.00;;;;;;5006076;28;20058;-89
2021/06/23 00:50:53;;;;;;;5.18;3.05;;;14.20;74.20;;;;;;4994982;28;20064;-90
2021/06/23 00:53:19;;;;;;;5.68;3.25;;;14.20;74.20;;;;;;5011796;28;20026;-89
2021/06/23 00:55:45;;;;;;;4.13;3.08;;;14.10;74.20;;;;;;4994302;28;20029;-89
2021/06/23 00:58:13;;;;;;;5.55;3.10;;;14.20;74.30;;;;;;5014118;28;20030;-89
2021/06/23 01:00:39;;;;;;;4.20;2.88;;;14.20;74.30;;;;;;5014087;28;20125;-89
2021/06/23 01:03:09;;;;;;;4.50;2.70;;;14.20;74.30;;;;;;4996049;28;20685;-90
2021/06/23 01:05:35;;;;;;;3.78;2.30;;;14.20;74.30;;;;;;5004376;28;20033;-90
2021/06/23 01:08:01;;;;;;;5.35;3.53;;;14.20;74.20;;;;;;4994624;28;20030;-88
2021/06/23 01:10:32;;;;;;;4.43;3.08;;;14.20;74.30;;;;;;4990382;28;20527;-89
2021/06/23 01:13:35;;;;;;;4.03;2.90;;;14.20;74.20;;;;;;4983602;28;20018;-88
2021/06/23 01:16:04;;;;;;;3.78;2.92;;;14.30;74.10;;;;;;4962257;28;20049;-88
2021/06/23 01:18:33;;;;;;;5.20;3.50;;;14.30;74.10;;;;;;4992616;28;20109;-89
2021/06/23 01:20:58;;;;;;;3.10;2.25;;;14.20;74.10;;;;;;4993296;28;20021;-89
2021/06/23 01:23:24;;;;;;;4.45;3.10;;;14.30;74.20;;;;;;5010214;28;20153;-89
2021/06/23 01:25:51;;;;;;;3.83;2.55;;;14.30;74.30;;;;;;5011315;28;20041;-89
2021/06/23 01:28:17;;;;;;;3.58;2.45;;;14.30;74.20;;;;;;5011069;28;20483;-88
2021/06/23 01:30:42;;;;;;;4.03;2.92;;;14.30;74.10;;;;;;5008081;28;20033;-88
2021/06/23 01:33:09;;;;;;;5.25;2.97;;;14.30;74.10;;;;;;5010315;28;20033;-87
2021/06/23 01:35:38;;;;;;;5.97;3.22;;;14.30;74.10;;;;;;4992993;28;20109;-88
2021/06/23 01:38:05;;;;;;;5.53;3.47;;;14.30;74.20;;;;;;5010448;28;20030;-89
2021/06/23 01:40:31;;;;;;;5.00;3.08;;;14.20;74.30;;;;;;5009659;28;20036;-88
2021/06/23 01:42:58;;;;;;;4.35;2.90;;;14.20;74.40;;;;;;4992020;28;20022;-88
2021/06/23 01:45:25;;;;;;;5.47;2.97;;;14.20;74.40;;;;;;5009771;28;20096;-87
2021/06/23 01:47:50;;;;;;;3.90;2.60;;;14.20;74.40;;;;;;5009785;28;20026;-86
2021/06/23 01:50:16;;;;;;;4.35;2.85;;;14.20;74.50;;;;;;5010404;28;20113;-89
2021/06/23 01:52:42;;;;;;;4.53;3.25;;;14.20;74.40;;;;;;4992505;28;20423;-89
2021/06/23 01:55:26;;;;;;;4.57;3.17;;;14.20;74.40;;;;;;4992411;28;20022;-89
2021/06/23 01:57:56;;;;;;;4.97;3.10;;;14.20;74.60;;;;;;4984310;28;20384;-89
2021/06/23 02:00:29;;;;;;;3.42;2.50;;;14.10;74.60;;;;;;4990450;28;20507;-89
2021/06/23 02:03:01;;;;;;;4.45;2.78;;;14.10;74.60;;;;;;5009344;28;20488;-89
2021/06/23 02:05:42;;;;;;;6.45;3.20;;;14.10;74.60;;;;;;4992099;28;20033;-87
2021/06/23 02:08:42;;;;;;;6.03;2.80;;;14.10;74.70;;;;;;5014320;28;20030;-88
2021/06/23 02:11:31;;;;;;;2.67;2.40;;;14.10;74.70;;;;;;5003077;28;20096;-89
2021/06/23 02:14:06;;;;;;;4.50;3.08;;;14.10;74.70;;;;;;4997414;28;20034;-89
2021/06/23 02:16:34;;;;;;;4.60;2.70;;;14.10;74.70;;;;;;5014731;28;20048;-89
2021/06/23 02:19:06;;;;;;;5.63;3.25;;;14.20;74.70;;;;;;5014670;28;20089;-88
2021/06/23 02:21:39;;;;;;;3.78;2.70;;;14.20;74.80;;;;;;4996807;28;20030;-88
2021/06/23 02:24:07;;;;;;;5.38;3.30;;;14.20;74.70;;;;;;5002663;28;20515;-89
2021/06/23 02:26:34;;;;;;;3.05;2.67;;;14.20;74.70;;;;;;5011947;28;20053;-88
2021/06/23 02:29:00;;;;;;;5.45;2.88;;;14.20;74.70;;;;;;5012732;28;20026;-88
2021/06/23 02:31:28;;;;;;;4.63;2.90;;;14.10;74.60;;;;;;4995730;28;20377;-87
2021/06/23 02:33:55;;;;;;;3.42;2.75;;;14.20;74.80;;;;;;5013553;28;20536;-89
2021/06/23 02:36:22;;;;;;;3.72;2.50;;;14.20;74.70;;;;;;4997702;28;20018;-92
2021/06/23 02:38:48;;;;;;;3.40;2.70;;;14.20;74.70;;;;;;5003386;28;20514;-88
2021/06/23 02:41:15;;;;;;;4.63;3.15;;;14.20;74.70;;;;;;4996890;28;20061;-90
2021/06/23 02:43:41;;;;;;;4.28;2.92;;;14.20;74.70;;;;;;5013842;28;20105;-89
2021/06/23 02:46:06;;;;;;;5.13;2.92;;;14.20;74.70;;;;;;5014820;28;20117;-90
2021/06/23 02:48:32;;;;;;;6.65;3.05;;;14.20;74.80;;;;;;5014769;28;20029;-89
2021/06/23 02:51:18;;;;;;;5.10;3.05;;;14.10;74.80;;;;;;5013783;28;20210;-89
2021/06/23 02:53:46;;;;;;;4.60;3.00;;;14.10;75.00;;;;;;4994712;28;20112;-89
2021/06/23 02:56:12;;;;;;;4.63;2.53;;;14.10;75.00;;;;;;4996369;28;20660;-88
2021/06/23 02:58:39;;;;;;;3.03;2.72;;;14.10;75.00;;;;;;4996138;28;20021;-88
2021/06/23 03:01:05;;;;;;;5.35;3.45;;;14.10;74.90;;;;;;5013489;28;20041;-89
2021/06/23 03:03:31;;;;;;;4.05;2.85;;;14.10;74.90;;;;;;5012300;28;20105;-89
2021/06/23 03:06:00;;;;;;;4.32;3.05;;;14.10;74.90;;;;;;4995894;28;20117;-88
2021/06/23 03:08:28;;;;;;;5.15;2.95;;;14.10;74.90;;;;;;5012790;28;20442;-88
2021/06/23 03:10:53;;;;;;;4.35;2.78;;;14.10;74.90;;;;;;5013822;28;20022;-88
2021/06/23 03:13:19;;;;;;;3.47;2.70;;;14.10;74.90;;;;;;5012134;28;20033;-89
2021/06/23 03:15:44;;;;;;;4.40;3.05;;;14.10;74.90;;;;;;5013891;28;20176;-88
2021/06/23 03:18:10;;;;;;;4.90;2.85;;;14.10;74.90;;;;;;5012833;28;20036;-88
2021/06/23 03:20:35;;;;;;;5.40;2.85;;;14.10;75.10;;;;;;5013222;28;20045;-88
2021/06/23 03:23:01;;;;;;;4.25;2.92;;;14.10;75.20;;;;;;5012132;28;20022;-88
2021/06/23 03:25:27;;;;;;;4.18;2.80;;;14.10;75.10;;;;;;5005242;28;20052;-89
2021/06/23 03:27:58;;;;;;;3.13;2.60;;;14.20;75.10;;;;;;5006726;28;20041;-89
2021/06/23 03:30:26;;;;;;;3.50;2.55;;;14.20;75.10;;;;;;5012704;28;20063;-90
2021/06/23 03:32:52;;;;;;;4.38;2.90;;;14.20;75.00;;;;;;4993838;28;20030;-89
2021/06/23 03:35:22;;;;;;;3.65;2.83;;;14.10;75.00;;;;;;4995231;28;20102;-89
2021/06/23 03:37:52;;;;;;;3.58;3.10;;;14.10;75.70;;;;;;5011347;28;20415;-88
2021/06/23 03:40:19;;;;;;;3.92;2.88;;;14.10;75.10;;;;;;4994971;28;20110;-89
2021/06/23 03:42:45;;;;;;;5.82;3.53;;;14.10;75.10;;;;;;4994423;28;20040;-89
2021/06/23 03:45:12;;;;;;;5.93;3.40;;;14.10;75.10;;;;;;5012845;28;20053;-89
2021/06/23 03:47:39;;;;;;;4.22;2.70;;;14.10;75.20;;;;;;5012284;28;20061;-88
2021/06/23 03:50:06;;;;;;;3.63;2.95;;;14.10;75.20;;;;;;5011922;28;20303;-89
2021/06/23 03:52:39;;;;;;;4.32;2.70;;;14.10;75.20;;;;;;5004411;28;20044;-90
2021/06/23 03:55:09;;;;;;;5.28;3.55;;;14.00;75.10;;;;;;5011813;28;20026;-90
2021/06/23 03:57:35;;;;;;;3.70;3.28;;;14.10;75.10;;;;;;5013136;28;20471;-89
2021/06/23 04:00:00;;;;;;;5.28;3.58;;;14.00;75.20;;;;;;4995548;28;20061;-89
2021/06/23 04:02:26;;;;;;;4.38;3.28;;;14.00;75.30;;;;;;5012179;28;20033;-88
2021/06/23 04:04:51;;;;;;;5.82;3.38;;;14.00;75.40;;;;;;5012972;28;20080;-88
2021/06/23 04:07:17;;;;;;;5.43;3.22;;;14.00;75.30;;;;;;4995157;28;20026;-89
2021/06/23 04:09:43;;;;;;;4.32;3.22;;;14.00;75.40;;;;;;5012634;28;20029;-89
2021/06/23 04:12:10;;;;;;;5.40;3.80;;;14.00;75.30;;;;;;4995414;28;20049;-90
2021/06/23 04:14:36;;;;;;;4.53;3.20;;;14.00;76.00;;;;;;5011270;28;20056;-90
2021/06/23 04:17:03;;;;;;;5.72;3.20;;;14.00;75.40;;;;;;5012402;28;20018;-89
2021/06/23 04:19:29;;;;;;;4.60;3.00;;;14.00;75.40;;;;;;4995333;28;20034;-90
2021/06/23 04:21:54;;;;;;;4.00;3.08;;;14.00;75.40;;;;;;5011184;28;20457;-89
2021/06/23 04:24:20;;;;;;;5.43;3.13;;;14.00;75.30;;;;;;4994960;28;20037;-90
2021/06/23 04:26:45;;;;;;;3.97;2.97;;;14.00;75.30;;;;;;5013039;28;20041;-89
2021/06/23 04:29:12;;;;;;;5.00;3.13;;;14.00;75.30;;;;;;5011144;28;20503;-89
2021/06/23 04:31:38;;;;;;;4.28;3.30;;;14.00;75.30;;;;;;4994594;28;20049;-89
2021/06/23 04:34:04;;;;;;;5.00;3.38;;;14.00;75.40;;;;;;4993252;28;20077;-88
2021/06/23 04:36:29;;;;;;;4.70;3.00;;;14.00;75.40;;;;;;5010704;28;20072;-87
2021/06/23 04:38:55;;;;;;;5.18;3.40;;;14.00;75.40;;;;;;5011204;28;20061;-88
2021/06/23 04:41:21;;;;;;;4.28;2.80;;;14.00;75.50;;;;;;5012070;28;20018;-89
2021/06/23 04:43:46;;;;;;;4.68;3.20;;;14.00;75.50;;;;;;5012265;28;20022;-89
2021/06/23 04:46:12;;;;;;;3.42;2.45;;;14.00;75.50;;;;;;5012523;28;20097;-90
2021/06/23 04:48:38;;;;;;;4.88;2.90;;;14.10;75.50;;;;;;4995881;28;20502;-88
2021/06/23 04:51:04;;;;;;;6.45;2.70;;;14.10;75.40;;;;;;5007626;28;20046;-90
2021/06/23 04:53:30;;;;;;;4.80;2.80;;;14.10;75.40;;;;;;4993824;28;20676;-88
2021/06/23 04:55:57;;;;;;;3.83;2.85;;;14.10;75.40;;;;;;5023760;28;20049;-90
2021/06/23 04:58:22;;;;;;;3.17;2.67;;;14.10;75.40;;;;;;5006226;28;20030;-88
2021/06/23 05:00:48;;;;;;;5.15;3.10;;;14.10;75.40;;;;;;5012048;28;20568;-87
2021/06/23 05:03:13;;;;;;;4.20;2.72;;;14.10;75.30;;;;;;5011437;28;20022;-87
2021/06/23 05:05:39;;;;;;;5.82;3.28;;;14.20;75.30;;;;;;5010637;28;20511;-87
2021/06/23 05:08:06;;;;;;;4.32;2.90;;;14.20;75.30;;;;;;5011580;28;20468;-93
2021/06/23 05:10:32;;;;;;;3.63;2.50;;;14.30;75.30;;;;;;5011506;28;20440;-90
2021/06/23 05:12:58;;;;;;;2.78;2.22;;;14.30;75.30;;;;;;4993962;28;20396;-89
2021/06/23 05:15:24;;;;;;;4.63;2.85;;;14.30;75.20;;;;;;5011763;28;20026;-88
2021/06/23 05:17:50;;;;;;;4.45;2.80;;;14.40;75.10;;;;;;5034725;28;20021;-88
2021/06/23 05:20:16;;;;;;;3.88;2.53;;;14.40;75.10;;;;;;4990866;28;20108;-88
2021/06/23 05:22:42;;;;;;;5.47;3.03;;;14.50;75.10;;;;;;4987391;28;20152;-87
2021/06/23 05:25:09;;;;;;;4.65;2.80;;;14.50;75.00;;;;;;4992772;28;20026;-88
2021/06/23 05:27:34;;;;;;;3.08;2.60;;;14.60;75.60;;;;;;4994447;28;20377;-88
2021/06/23 05:30:00;;;;;;;4.75;3.10;;;14.60;74.90;;;;;;5008525;28;20033;-87
2021/06/23 05:32:26;;;;;;;3.60;2.55;;;14.60;74.80;;;;;;5010378;28;20384;-88
2021/06/23 05:34:51;;;;;;;5.00;2.95;;;14.60;74.80;;;;;;5010874;28;20472;-89
2021/06/23 05:37:17;;;;;;;7.07;3.20;;;14.70;74.80;;;;;;5012281;28;20041;-91
2021/06/23 05:39:43;;;;;;;5.63;2.92;;;14.70;74.70;;;;;;5010930;28;20022;-89
2021/06/23 05:42:09;;;;;;;4.97;2.90;;;14.70;74.70;;;;;;4989821;28;20416;-88
2021/06/23 05:44:34;;;;;;;3.90;2.50;;;14.70;74.60;;;;;;5006726;28;20451;-88
2021/06/23 05:47:00;;;;;;;3.25;2.85;;;14.80;74.60;;;;;;4991944;28;20088;-90
2021/06/23 05:49:26;;;;;;;4.43;2.88;;;14.90;74.50;;;;;;5012685;28;20018;-89
2021/06/23 05:51:52;;;;;;;3.58;2.70;;;15.00;74.20;;;;;;5009009;28;21483;-88
2021/06/23 05:54:20;;;;;;;4.85;2.60;;;15.20;73.90;;;;;;5008231;28;20022;-95
2021/06/23 05:56:45;;;;;;;4.63;2.88;;;15.30;73.60;;;;;;5004989;28;20018;-88
2021/06/23 05:59:11;;;;;;;7.47;4.70;;;15.50;73.20;;;;;;5011245;28;20026;-89
2021/06/23 06:01:36;;;;;;;6.20;3.28;;;15.70;72.90;;;;;;5006544;28;20042;-87
2021/06/23 06:04:02;;;;;;;4.10;2.70;;;15.80;72.50;;;;;;5007879;28;20029;-88
2021/06/23 06:06:29;;;;;;;3.72;2.60;;;16.10;72.20;;;;;;5010151;28;20069;-87
2021/06/23 06:08:54;;;;;;;3.92;2.10;;;16.30;72.50;;;;;;5009638;28;20061;-88
2021/06/23 06:11:20;;;;;;;3.50;2.50;;;16.40;71.30;;;;;;5023616;28;20448;-85
2021/06/23 06:13:46;;;;;;;4.65;2.13;;;16.60;71.10;;;;;;5010463;28;20492;-86
2021/06/23 06:16:11;;;;;;;3.47;2.20;;;16.60;70.70;;;;;;4993259;28;20030;-87
2021/06/23 06:18:37;;;;;;;4.53;2.30;;;16.50;70.40;;;;;;4988030;28;20030;-87
2021/06/23 06:21:03;;;;;;;4.50;2.20;;;16.50;70.40;;;;;;5009548;28;20487;-87
2021/06/23 06:23:29;;;;;;;4.13;2.30;;;16.40;70.30;;;;;;5007712;28;20105;-85
2021/06/23 06:25:55;;;;;;;3.53;1.73;;;16.30;70.50;;;;;;4990182;28;20033;-87
2021/06/23 06:28:21;;;;;;;3.80;1.90;;;16.40;70.70;;;;;;5000239;28;20540;-87
2021/06/23 06:30:47;;;;;;;3.15;1.80;;;16.40;70.50;;;;;;5002428;28;20374;-86
2021/06/23 06:33:13;;;;;;;4.75;1.92;;;16.40;70.40;;;;;;5005468;28;20052;-88
2021/06/23 06:35:38;;;;;;;3.13;1.90;;;16.30;70.20;;;;;;5007996;28;20136;-84
2021/06/23 06:38:04;;;;;;;3.22;1.75;;;16.30;70.50;;;;;;5007360;28;20022;-85
2021/06/23 06:40:30;;;;;;;4.15;2.28;;;16.30;70.50;;;;;;5009568;28;20041;-86
2021/06/23 06:42:56;;;;;;;4.35;2.33;;;16.30;70.30;;;;;;4991667;28;20505;-87
2021/06/23 06:45:23;;;;;;;5.95;2.10;;;16.30;70.30;;;;;;5007408;28;20076;-86
2021/06/23 06:47:48;;;;;;;5.03;1.90;;;16.30;70.50;;;;;;4991127;28;20030;-85
2021/06/23 06:50:14;;;;;;;3.85;1.80;;;16.20;70.40;;;;;;5008343;28;20037;-86
2021/06/23 06:52:40;;;;;;;5.95;2.75;;;16.30;70.30;;;;;;5011361;28;20026;-91
2021/06/23 06:55:07;;;;;;;3.50;1.65;;;16.10;69.10;;;;;;5013857;28;20029;-89
2021/06/23 06:57:32;;;;;;;5.53;2.10;;;16.10;70.00;;;;;;5013108;28;20026;-86
2021/06/23 06:59:58;;;;;;;3.42;1.83;;;16.20;70.10;;;;;;4995160;28;20041;-89
2021/06/23 07:02:24;;;;;;;4.05;2.00;;;16.30;70.10;;;;;;5011309;28;20032;-89
2021/06/23 07:04:50;;;;;;;4.20;1.77;;;16.40;69.90;;;;;;5004148;28;20030;-88
2021/06/23 07:07:15;;;;;;;2.85;1.70;;;16.50;69.70;;;;;;5011678;28;20053;-87
2021/06/23 07:09:41;;;;;;;4.60;1.77;;;16.60;69.70;;;;;;5012867;28;20022;-89
2021/06/23 07:12:07;;;;;;;3.03;1.73;;;16.70;69.60;;;;;;4990766;28;20022;-89
2021/06/23 07:14:34;;;;;;;5.13;2.33;;;16.80;69.10;;;;;;5002558;28;20479;-87
2021/06/23 07:17:00;;;;;;;6.10;2.13;;;16.80;68.60;;;;;;5009132;28;20137;-89
2021/06/23 07:19:26;;;;;;;4.53;2.17;;;16.80;68.60;;;;;;5012019;28;20105;-88
2021/06/23 07:21:52;;;;;;;3.13;1.63;;;16.80;67.60;;;;;;5005648;28;20587;-91
2021/06/23 07:24:18;;;;;;;4.32;1.88;;;16.80;67.80;;;;;;5002300;28;20030;-90
2021/06/23 07:26:47;;;;;;;3.67;1.52;;;16.70;67.40;;;;;;4987698;28;20036;-88
2021/06/23 07:29:13;;;;;;;3.85;1.60;;;16.70;67.50;;;;;;5008616;28;20026;-88
2021/06/23 07:31:58;;;;;;;3.72;1.83;;;16.70;67.60;;;;;;5007073;28;20084;-88
2021/06/23 07:37:06;;;;;;;3.47;2.10;;;16.70;67.30;;;;;;5003342;28;20037;-88
2021/06/23 07:39:33;;;;;;;2.55;1.80;;;16.70;67.10;;;;;;5004627;28;20488;-87
2021/06/23 07:42:01;;;;;;;4.45;1.70;;;16.80;67.10;;;;;;5005428;28;20033;-88
2021/06/23 07:44:31;;;;;;;3.72;1.90;;;16.80;67.00;;;;;;5007848;28;20042;-89
2021/06/23 07:47:03;;;;;;;2.55;1.50;;;16.90;67.00;;;;;;4990502;28;20049;-90
2021/06/23 07:49:33;;;;;;;3.65;1.90;;;16.90;67.00;;;;;;5003419;28;20026;-92
2021/06/23 07:52:05;;;;;;;3.88;1.80;;;16.90;66.90;;;;;;5005660;28;20168;-89
2021/06/23 08:10:12;;;;;;;2.78;1.50;;;17.40;65.30;;;;;;5012411;28;20040;-88
2021/06/23 08:12:58;;;;;;;4.05;2.10;;;17.50;65.10;;;;;;4994414;28;20092;-94
2021/06/23 08:15:29;;;;;;;3.38;1.50;;;17.50;64.70;;;;;;5012741;28;20178;-89
2021/06/23 08:17:56;;;;;;;3.45;1.40;;;17.50;64.60;;;;;;5005593;28;20119;-90
2021/06/23 08:23:12;;;;;;;3.53;1.73;;;17.60;64.50;;;;;;5094800;23;20087;-90
2021/06/23 08:25:38;;;;;;;2.70;1.70;;;17.80;64.40;;;;;;5029136;28;20041;-88
2021/06/23 08:28:05;;;;;;;4.20;2.00;;;18.10;63.50;;;;;;5027038;28;20037;-89
2021/06/23 08:30:31;;;;;;;4.38;1.73;;;18.20;63.20;;;;;;5026631;28;20107;-85
2021/06/23 08:32:59;;;;;;;3.80;1.70;;;18.60;63.00;;;;;;5028226;28;20029;-88
2021/06/23 08:38:11;;;;;;;2.75;1.20;;;19.10;61.40;;;;;;5161958;23;20044;-88
2021/06/23 08:40:45;;;;;;;2.45;1.35;;;19.20;60.80;;;;;;5016610;28;20037;-90
2021/06/23 08:43:16;;;;;;;3.40;1.20;;;19.30;60.50;;;;;;5005491;28;20034;-90
2021/06/23 08:45:41;;;;;;;5.00;1.55;;;19.30;59.80;;;;;;5014394;28;20099;-90
2021/06/23 08:48:08;;;;;;;2.40;1.27;;;19.40;59.70;;;;;;5013905;28;20086;-91
2021/06/23 08:50:34;;;;;;;4.63;1.45;;;19.30;59.40;;;;;;5011862;28;20038;-90
2021/06/23 08:52:59;;;;;;;3.40;1.40;;;19.20;59.00;;;;;;5011486;28;20029;-90
2021/06/23 08:55:25;;;;;;;3.05;1.20;;;19.20;59.50;;;;;;5028362;28;20032;-92
2021/06/23 08:57:52;;;;;;;3.67;1.40;;;19.20;59.80;;;;;;5012028;28;20144;-92
2021/06/23 09:00:21;;;;;;;3.70;1.17;;;19.20;58.80;;;;;;5013722;28;20025;-91
2021/06/23 09:02:47;;;;;;;3.45;1.50;;;19.30;58.80;;;;;;4997818;28;20030;-90
2021/06/23 09:05:15;;;;;;;3.75;1.50;;;19.40;58.70;;;;;;5010054;28;20125;-92
2021/06/23 09:07:55;;;;;;;2.70;1.38;;;19.50;58.10;;;;;;5015085;28;20114;-94
2021/06/23 09:10:21;;;;;;;6.00;1.20;;;19.50;57.80;;;;;;5003479;28;20097;-94
2021/06/23 09:13:08;;;;;;;3.25;1.30;;;19.50;57.70;;;;;;5012771;28;20053;-94
2021/06/23 09:15:58;;;;;;;4.40;1.60;;;19.50;56.80;;;;;;5013772;28;20029;-93
2021/06/23 09:18:34;;;;;;;3.95;1.40;;;19.60;56.20;;;;;;5002335;28;20022;-93
2021/06/23 09:21:18;;;;;;;3.55;1.33;;;19.60;55.90;;;;;;5025680;28;20021;-93
2021/06/23 09:23:50;;;;;;;2.58;1.20;;;19.70;56.10;;;;;;5013731;28;20034;-91
2021/06/23 09:26:24;;;;;;;3.25;1.30;;;19.80;56.50;;;;;;5011363;28;20155;-93
2021/06/23 09:29:11;;;;;;;3.22;1.50;;;19.90;56.30;;;;;;5007247;28;20551;-93
2021/06/23 09:31:57;;;;;;;3.65;1.63;;;19.60;54.80;;;;;;4997876;28;20021;-93
2021/06/23 09:34:26;;;;;;;2.80;1.30;;;19.60;55.60;;;;;;5006007;28;20092;-93
2021/06/23 09:36:53;;;;;;;2.45;1.20;;;19.70;56.00;;;;;;5024670;28;20056;-93
2021/06/23 09:39:24;;;;;;;5.55;1.50;;;19.80;55.70;;;;;;5037669;28;20044;-93
2021/06/23 09:41:52;;;;;;;2.57;1.27;;;19.90;55.50;;;;;;5017330;28;20022;-91
2021/06/23 09:44:21;;;;;;;3.50;1.35;;;19.90;55.30;;;;;;5031791;28;20020;-90
2021/06/23 09:46:48;;;;;;;4.18;1.55;;;20.10;55.40;;;;;;5029236;28;20072;-92
2021/06/23 09:49:22;;;;;;;3.17;1.60;;;20.10;55.10;;;;;;5030062;28;20033;-92
2021/06/23 09:51:53;;;;;;;3.22;1.42;;;20.20;53.90;;;;;;5029465;28;20025;-92
2021/06/23 09:54:27;;;;;;;3.00;1.20;;;20.30;53.60;;;;;;5020048;28;20027;-92
2021/06/23 09:57:02;;;;;;;5.97;1.25;;;20.40;53.30;;;;;;5033243;28;20021;-94
2021/06/23 10:01:53;;;;;;;2.60;1.10;;;20.40;53.30;;;;;;5151614;23;20107;-92
2021/06/23 10:04:19;;;;;;;2.90;1.20;;;20.40;53.20;;;;;;5052294;28;20021;-92
2021/06/23 10:06:46;;;;;;;2.67;1.30;;;20.50;53.20;;;;;;5033011;28;20029;-93
2021/06/23 10:09:25;;;;;;;4.25;1.80;;;20.70;53.10;;;;;;5027594;28;20026;-94
2021/06/23 10:12:05;;;;;;;3.10;1.30;;;20.40;50.70;;;;;;5025853;28;20022;-93
2021/06/23 10:14:33;;;;;;;3.53;1.30;;;20.20;52.20;;;;;;5015058;28;20021;-94
2021/06/23 10:17:13;;;;;;;5.03;1.60;;;20.30;52.70;;;;;;5031180;28;20041;-93
2021/06/23 10:19:39;;;;;;;5.72;1.83;;;20.20;51.60;;;;;;5033347;28;20025;-93
2021/06/23 10:22:06;;;;;;;3.58;1.50;;;19.90;51.80;;;;;;5014683;28;20097;-93
2021/06/23 10:24:43;;;;;;;4.68;1.60;;;19.90;52.60;;;;;;5013974;28;20021;-93
2021/06/23 10:27:11;;;;;;;2.45;1.20;;;20.10;53.00;;;;;;5030200;28;20042;-94
2021/06/23 10:29:40;;;;;;;3.38;1.27;;;20.20;52.90;;;;;;5016186;28;20029;-92
2021/06/23 10:32:09;;;;;;;2.45;1.00;;;20.40;52.50;;;;;;5034406;28;20025;-90
2021/06/23 10:34:34;;;;;;;4.85;1.13;;;20.50;52.40;;;;;;5025694;28;20529;-93
2021/06/23 10:37:01;;;;;;;3.92;1.10;;;20.70;52.20;;;;;;5018618;28;20034;-95
2021/06/23 10:39:31;;;;;;;2.22;1.00;;;20.70;51.90;;;;;;5033797;28;20060;-93
2021/06/23 10:42:05;;;;;;;2.45;1.05;;;20.90;51.90;;;;;;5031718;28;20037;-93
2021/06/23 10:44:43;;;;;;;3.33;1.13;;;21.00;51.60;;;;;;5017127;28;20736;-93
2021/06/23 10:47:45;;;;;;;1.88;1.20;;;21.10;51.20;;;;;;5030413;28;20040;-93
2021/06/23 10:50:31;;;;;;;2.87;0.93;;;21.20;51.50;;;;;;4989290;28;20045;-93
2021/06/23 10:52:56;;;;;;;3.58;1.30;;;21.30;51.00;;;;;;5035505;28;20778;-93
2021/06/23 10:55:24;;;;;;;2.38;1.20;;;21.20;51.10;;;;;;5040693;28;20036;-92
2021/06/23 10:57:52;;;;;;;2.50;0.90;;;21.30;51.00;;;;;;5035653;28;20060;-92
2021/06/23 11:00:18;;;;;;;3.55;1.40;;;21.30;51.10;;;;;;5023591;28;20063;-90
2021/06/23 11:02:46;;;;;;;2.25;1.10;;;21.20;50.70;;;;;;5048481;28;20359;-89
2021/06/23 11:05:18;;;;;;;2.63;1.10;;;21.40;51.00;;;;;;5032223;28;20056;-89
2021/06/23 11:07:49;;;;;;;3.25;1.38;;;21.60;50.50;;;;;;5034157;28;20041;-90
2021/06/23 11:10:15;;;;;;;2.83;1.10;;;21.70;50.20;;;;;;5035883;28;20014;-88
2021/06/23 11:12:45;;;;;;;6.03;1.70;;;21.90;50.00;;;;;;5033228;28;20171;-89
2021/06/23 11:15:13;;;;;;;2.65;1.20;;;21.90;48.70;;;;;;5036626;28;20029;-90
2021/06/23 11:17:39;;;;;;;2.63;0.82;;;21.90;49.30;;;;;;5042660;28;20025;-90
2021/06/23 11:20:35;;;;;;;2.25;1.30;;;22.10;49.50;;;;;;5027872;28;20144;-90
2021/06/23 11:23:01;;;;;;;1.92;1.10;;;22.20;49.40;;;;;;5022967;28;20013;-92
2021/06/23 11:25:34;;;;;;;2.25;1.17;;;22.30;49.30;;;;;;5033511;28;20025;-90
2021/06/23 11:28:12;;;;;;;3.78;1.40;;;22.30;49.30;;;;;;5030841;28;20022;-89
2021/06/23 11:31:09;;;;;;;2.85;1.30;;;22.20;49.00;;;;;;5026975;28;20026;-90
2021/06/23 11:33:38;;;;;;;3.95;1.40;;;21.90;48.80;;;;;;5037104;28;20106;-91
2021/06/23 11:36:10;;;;;;;4.20;1.35;;;21.50;48.70;;;;;;5036848;28;20767;-90
2021/06/23 11:38:37;;;;;;;5.63;1.85;;;21.50;49.90;;;;;;5029054;28;20048;-90
2021/06/23 11:41:05;;;;;;;3.83;1.80;;;21.30;49.00;;;;;;5029826;28;20025;-90
2021/06/23 11:43:30;;;;;;;3.70;1.58;;;21.00;49.70;;;;;;5026833;28;20022;-89
2021/06/23 11:45:57;;;;;;;1.85;1.20;;;21.00;50.90;;;;;;5027905;28;20059;-90
2021/06/23 11:48:24;;;;;;;1.98;1.10;;;21.20;50.90;;;;;;5031073;28;20021;-88
2021/06/23 11:50:50;;;;;;;1.95;1.05;;;21.30;50.50;;;;;;5028039;28;20029;-90
2021/06/23 11:53:18;;;;;;;4.28;1.35;;;21.60;50.50;;;;;;5029987;28;20014;-89
2021/06/23 11:55:44;;;;;;;3.40;1.65;;;21.80;49.90;;;;;;5031222;28;20079;-90
2021/06/23 11:58:10;;;;;;;3.38;1.25;;;21.60;49.40;;;;;;5031693;28;20337;-91
2021/06/23 12:00:38;;;;;;;4.65;1.85;;;21.50;49.50;;;;;;5037382;28;20025;-90
2021/06/23 12:03:15;;;;;;;2.85;1.45;;;21.40;50.00;;;;;;5034491;28;20064;-91
2021/06/23 12:05:41;;;;;;;2.88;1.20;;;21.30;50.50;;;;;;5039010;28;20548;-92
2021/06/23 12:08:10;;;;;;;3.40;1.40;;;21.40;51.40;;;;;;5032170;28;20030;-91
2021/06/23 12:10:38;;;;;;;2.78;1.40;;;21.50;50.80;;;;;;5039466;28;20037;-92
2021/06/23 12:13:04;;;;;;;4.05;1.65;;;21.60;50.50;;;;;;5018105;28;20017;-91
2021/06/23 12:15:31;;;;;;;3.42;1.40;;;21.60;50.50;;;;;;5033869;28;20388;-92
2021/06/23 12:18:03;;;;;;;3.60;1.63;;;21.60;50.60;;;;;;5016564;28;20065;-92
2021/06/23 12:20:30;;;;;;;3.22;1.33;;;21.60;50.50;;;;;;5033712;28;20156;-93
2021/06/23 12:22:59;;;;;;;2.45;1.30;;;21.70;50.40;;;;;;5032589;28;20380;-91
2021/06/23 12:25:28;;;;;;;2.38;1.20;;;21.70;50.40;;;;;;5030311;28;20056;-93
2021/06/23 12:27:58;;;;;;;2.50;1.58;;;21.90;50.40;;;;;;5033271;28;20036;-94
2021/06/23 12:30:27;;;;;;;3.33;1.30;;;21.90;50.20;;;;;;5034604;28;20101;-92
2021/06/23 12:32:58;;;;;;;2.45;1.02;;;21.90;50.30;;;;;;5011252;28;20025;-94
2021/06/23 12:35:25;;;;;;;2.78;1.20;;;21.90;50.40;;;;;;5029279;28;20067;-94
2021/06/23 12:37:51;;;;;;;3.08;1.25;;;22.00;50.20;;;;;;5015058;28;20112;-91
2021/06/23 12:40:17;;;;;;;2.30;1.20;;;22.10;50.10;;;;;;5037174;28;20112;-91
2021/06/23 12:42:43;;;;;;;2.45;1.35;;;22.40;50.10;;;;;;5017875;28;20052;-87
2021/06/23 12:45:09;;;;;;;3.17;1.40;;;22.50;49.40;;;;;;5032067;28;20056;-89
2021/06/23 12:47:36;;;;;;;3.35;1.30;;;22.60;49.30;;;;;;5013909;28;20430;-89
2021/06/23 12:50:03;;;;;;;2.65;1.30;;;22.60;49.30;;;;;;5014044;28;20026;-89
2021/06/23 12:52:28;;;;;;;3.33;1.30;;;22.60;49.30;;;;;;5031392;28;20036;-90
2021/06/23 12:54:54;;;;;;;2.83;1.40;;;22.60;49.30;;;;;;5036145;28;20021;-91
2021/06/23 12:57:19;;;;;;;3.67;1.33;;;22.70;49.10;;;;;;5029894;28;20075;-89
2021/06/23 12:59:46;;;;;;;2.03;1.20;;;22.80;49.20;;;;;;5012942;28;20056;-88
2021/06/23 13:02:11;;;;;;;2.60;1.30;;;22.70;48.90;;;;;;5010746;28;20021;-90
2021/06/23 13:04:37;;;;;;;3.72;1.50;;;22.60;49.00;;;;;;5030681;28;20471;-91
2021/06/23 13:07:03;;;;;;;4.50;1.50;;;22.60;48.90;;;;;;5030630;28;20052;-91
2021/06/23 13:09:28;;;;;;;2.85;1.30;;;22.60;48.70;;;;;;5035822;28;20115;-90
2021/06/23 13:11:58;;;;;;;2.30;1.13;;;22.60;48.90;;;;;;5030301;28;20051;-90
2021/06/23 13:14:24;;;;;;;2.63;1.15;;;22.70;48.80;;;;;;5014164;28;20396;-93
2021/06/23 13:16:49;;;;;;;2.15;1.38;;;22.70;49.00;;;;;;5029687;28;20037;-91
2021/06/23 13:19:19;;;;;;;1.50;1.10;;;22.60;48.60;;;;;;5010612;28;20033;-91
2021/06/23 13:21:45;;;;;;;2.08;1.08;;;22.50;49.10;;;;;;5012777;28;20043;-90